createdAt,value
2022-12-11T00:00:55.612Z,-1.70
2022-12-11T00:03:40.230Z,-1.71
2022-12-11T00:06:10.143Z,-1.74
2022-12-11T00:08:39.038Z,-1.78
2022-12-11T00:11:13.048Z,-1.80
2022-12-11T00:13:41.230Z,-1.85
2022-12-11T00:16:09.615Z,-1.86
2022-12-11T00:18:38.287Z,-1.83
2022-12-11T00:21:07.781Z,-1.81
2022-12-11T00:23:35.957Z,-1.82
2022-12-11T00:26:09.498Z,-1.84
2022-12-11T00:28:37.144Z,-1.86
2022-12-11T00:31:06.973Z,-1.87
2022-12-11T00:33:34.771Z,-1.89
2022-12-11T00:36:02.654Z,-1.90
2022-12-11T00:38:30.334Z,-1.89
2022-12-11T00:40:59.223Z,-1.93
2022-12-11T00:43:26.863Z,-1.96
2022-12-11T00:45:54.564Z,-2.01
2022-12-11T00:48:22.342Z,-1.99
2022-12-11T00:50:49.970Z,-1.98
2022-12-11T00:53:17.583Z,-2.00
2022-12-11T00:55:45.208Z,-2.03
2022-12-11T00:58:13.536Z,-2.00
2022-12-11T01:00:41.913Z,-1.98
2022-12-11T01:03:12.974Z,-1.96
2022-12-11T01:05:41.231Z,-2.01
2022-12-11T01:08:09.031Z,-2.08
2022-12-11T01:10:36.903Z,-2.18
2022-12-11T01:13:06.653Z,-2.28
2022-12-11T01:15:41.551Z,-2.34
2022-12-11T01:18:12.024Z,-2.40
2022-12-11T01:20:41.329Z,-2.46
2022-12-11T01:23:12.391Z,-2.49
2022-12-11T01:25:40.675Z,-2.54
2022-12-11T01:28:09.211Z,-2.57
2022-12-11T01:30:37.443Z,-2.59
2022-12-11T01:33:05.214Z,-2.61
2022-12-11T01:35:32.813Z,-2.62
2022-12-11T01:38:00.491Z,-2.65
2022-12-11T01:40:28.287Z,-2.66
2022-12-11T01:42:56.118Z,-2.67
2022-12-11T01:45:36.499Z,-2.71
2022-12-11T01:48:25.025Z,-2.72
2022-12-11T01:51:02.820Z,-2.76
2022-12-11T01:53:37.067Z,-2.79
2022-12-11T01:56:08.004Z,-2.77
2022-12-11T01:58:45.626Z,-2.72
2022-12-11T02:01:26.076Z,-2.69
2022-12-11T02:03:55.648Z,-2.70
2022-12-11T02:06:43.826Z,-2.72
2022-12-11T02:09:22.417Z,-2.70
2022-12-11T02:12:12.713Z,-2.67
2022-12-11T02:15:13.307Z,-2.68
2022-12-11T02:17:48.703Z,-2.69
2022-12-11T02:20:24.460Z,-2.66
2022-12-11T02:23:02.450Z,-2.62
2022-12-11T02:25:46.039Z,-2.59
2022-12-11T02:28:31.906Z,-2.57
2022-12-11T02:31:13.398Z,-2.54
2022-12-11T02:33:51.682Z,-2.57
2022-12-11T02:36:23.639Z,-2.60
2022-12-11T02:38:54.629Z,-2.64
2022-12-11T02:41:24.693Z,-2.70
2022-12-11T02:43:56.164Z,-2.73
2022-12-11T02:46:25.291Z,-2.80
2022-12-11T02:48:54.164Z,-2.85
2022-12-11T02:51:27.397Z,-2.86
2022-12-11T02:53:58.394Z,-2.84
2022-12-11T02:56:45.285Z,-2.82
2022-12-11T02:59:21.064Z,-2.82
2022-12-11T03:01:50.457Z,-2.77
2022-12-11T03:04:18.404Z,-2.77
2022-12-11T03:06:51.327Z,-2.80
2022-12-11T03:09:19.073Z,-2.83
2022-12-11T03:11:46.692Z,-2.83
2022-12-11T03:14:14.796Z,-2.85
2022-12-11T03:17:15.158Z,-2.86
2022-12-11T03:19:45.413Z,-2.87
2022-12-11T03:22:18.803Z,-2.85
2022-12-11T03:25:15.541Z,-2.80
2022-12-11T03:27:57.288Z,-2.77
2022-12-11T03:30:28.549Z,-2.75
2022-12-11T03:33:04.002Z,-2.69
2022-12-11T03:35:51.231Z,-2.70
2022-12-11T03:38:31.576Z,-2.70
2022-12-11T03:41:02.188Z,-2.73
2022-12-11T03:43:32.029Z,-2.80
2022-12-11T03:46:00.977Z,-2.89
2022-12-11T03:48:33.804Z,-2.96
2022-12-11T03:51:06.121Z,-3.02
2022-12-11T03:53:37.903Z,-3.07
2022-12-11T03:56:08.571Z,-3.11
2022-12-11T03:58:36.398Z,-3.16
2022-12-11T04:01:04.385Z,-3.20
2022-12-11T04:03:32.233Z,-3.22
2022-12-11T04:05:59.814Z,-3.17
2022-12-11T04:08:27.931Z,-3.15
2022-12-11T04:11:11.656Z,-3.11
2022-12-11T04:13:40.690Z,-3.02
2022-12-11T04:16:09.461Z,-2.98
2022-12-11T04:18:53.176Z,-2.95
2022-12-11T04:21:39.667Z,-2.94
2022-12-11T04:24:24.559Z,-2.95
2022-12-11T04:26:52.151Z,-2.97
2022-12-11T04:29:19.756Z,-2.98
2022-12-11T04:31:47.429Z,-2.97
2022-12-11T04:34:15.018Z,-2.99
2022-12-11T04:36:43.141Z,-3.04
2022-12-11T04:39:10.911Z,-3.09
2022-12-11T04:41:39.000Z,-3.11
2022-12-11T04:44:06.703Z,-3.14
2022-12-11T04:46:34.792Z,-3.13
2022-12-11T04:49:02.564Z,-3.07
2022-12-11T04:51:30.184Z,-3.06
2022-12-11T04:53:59.358Z,-3.14
2022-12-11T04:56:27.226Z,-3.19
2022-12-11T04:58:54.856Z,-3.25
2022-12-11T05:01:23.309Z,-3.32
2022-12-11T05:03:51.188Z,-3.35
2022-12-11T05:06:19.014Z,-3.36
2022-12-11T05:08:46.641Z,-3.37
2022-12-11T05:11:15.907Z,-3.38
2022-12-11T05:13:44.547Z,-3.41
2022-12-11T05:16:15.517Z,-3.46
2022-12-11T05:18:43.676Z,-3.49
2022-12-11T05:21:13.694Z,-3.52
2022-12-11T05:23:42.364Z,-3.56
2022-12-11T05:26:28.106Z,-3.58
2022-12-11T05:28:56.257Z,-3.59
2022-12-11T05:31:26.215Z,-3.61
2022-12-11T05:33:54.392Z,-3.58
2022-12-11T05:36:24.197Z,-3.57
2022-12-11T05:38:53.379Z,-3.61
2022-12-11T05:41:23.453Z,-3.68
2022-12-11T05:43:52.052Z,-3.71
2022-12-11T05:46:25.524Z,-3.70
2022-12-11T05:48:59.782Z,-3.68
2022-12-11T05:51:28.702Z,-3.67
2022-12-11T05:53:57.720Z,-3.67
2022-12-11T05:56:30.334Z,-3.67
2022-12-11T05:58:59.519Z,-3.68
2022-12-11T06:01:28.912Z,-3.66
2022-12-11T06:03:57.403Z,-3.64
2022-12-11T06:06:26.606Z,-3.65
2022-12-11T06:08:56.422Z,-3.60
2022-12-11T06:11:26.779Z,-3.52
2022-12-11T06:13:55.337Z,-3.46
2022-12-11T06:16:23.441Z,-3.45
2022-12-11T06:18:53.677Z,-3.49
2022-12-11T06:21:31.943Z,-3.53
2022-12-11T06:24:03.085Z,-3.55
2022-12-11T06:26:32.019Z,-3.56
2022-12-11T06:29:00.137Z,-3.56
2022-12-11T06:31:27.937Z,-3.55
2022-12-11T06:33:55.677Z,-3.56
2022-12-11T06:36:24.270Z,-3.57
2022-12-11T06:38:52.647Z,-3.59
2022-12-11T06:41:20.395Z,-3.63
2022-12-11T06:43:48.061Z,-3.64
2022-12-11T06:46:18.863Z,-3.65
2022-12-11T06:48:47.441Z,-3.68
2022-12-11T06:51:18.276Z,-3.69
2022-12-11T06:53:50.936Z,-3.66
2022-12-11T06:56:19.818Z,-3.62
2022-12-11T06:58:47.439Z,-3.59
2022-12-11T07:01:16.960Z,-3.59
2022-12-11T07:03:44.842Z,-3.61
2022-12-11T07:06:12.828Z,-3.66
2022-12-11T07:08:40.984Z,-3.73
2022-12-11T07:11:11.452Z,-3.77
2022-12-11T07:13:40.235Z,-3.76
2022-12-11T07:16:11.080Z,-3.82
2022-12-11T07:18:46.386Z,-3.88
2022-12-11T07:21:14.905Z,-3.95
2022-12-11T07:23:42.548Z,-3.98
2022-12-11T07:26:13.768Z,-4.02
2022-12-11T07:28:42.407Z,-4.06
2022-12-11T07:31:12.983Z,-4.07
2022-12-11T07:33:41.382Z,-4.07
2022-12-11T07:36:11.935Z,-4.06
2022-12-11T07:38:40.223Z,-4.03
2022-12-11T07:41:11.485Z,-3.98
2022-12-11T07:43:39.329Z,-3.94
2022-12-11T07:46:11.734Z,-3.87
2022-12-11T08:10:23.931Z,-2.92
2022-12-11T08:12:51.492Z,-3.08
2022-12-11T08:15:19.019Z,-3.20
2022-12-11T08:17:46.554Z,-3.31
2022-12-11T08:20:14.356Z,-3.39
2022-12-11T08:22:41.871Z,-3.41
2022-12-11T08:25:09.810Z,-3.37
2022-12-11T08:27:37.598Z,-3.35
2022-12-11T08:30:06.040Z,-3.37
2022-12-11T08:32:35.130Z,-3.40
2022-12-11T08:35:02.754Z,-3.40
2022-12-11T08:37:30.352Z,-3.36
2022-12-11T08:39:57.854Z,-3.32
2022-12-11T08:42:25.374Z,-3.35
2022-12-11T08:44:52.925Z,-3.34
2022-12-11T08:47:21.085Z,-3.33
2022-12-11T08:49:48.643Z,-3.32
2022-12-11T08:52:16.530Z,-3.31
2022-12-11T08:54:44.134Z,-3.32
2022-12-11T08:57:11.837Z,-3.35
2022-12-11T08:59:41.549Z,-3.38
2022-12-11T09:02:13.084Z,-3.34
2022-12-11T09:04:40.892Z,-3.33
2022-12-11T09:07:08.446Z,-3.30
2022-12-11T09:09:36.144Z,-3.28
2022-12-11T09:12:04.609Z,-3.28
2022-12-11T09:14:32.155Z,-3.34
2022-12-11T09:16:59.706Z,-3.41
2022-12-11T09:19:32.111Z,-3.47
2022-12-11T09:22:00.035Z,-3.50
2022-12-11T09:24:27.573Z,-3.55
2022-12-11T09:26:55.109Z,-3.60
2022-12-11T09:29:22.691Z,-3.63
2022-12-11T09:31:50.369Z,-3.64
2022-12-11T09:34:17.903Z,-3.67
2022-12-11T09:36:45.622Z,-3.69
2022-12-11T09:39:15.041Z,-3.70
2022-12-11T09:42:04.665Z,-3.70
2022-12-11T09:45:01.371Z,-3.73
2022-12-11T09:47:35.997Z,-3.78
2022-12-11T09:50:13.251Z,-3.81
2022-12-11T09:52:43.793Z,-3.79
2022-12-11T09:55:33.321Z,-3.78
2022-12-11T09:58:18.125Z,-3.76
2022-12-11T10:00:49.416Z,-3.74
2022-12-11T10:03:46.854Z,-3.76
2022-12-11T10:06:33.245Z,-3.79
2022-12-11T10:09:18.343Z,-3.80
2022-12-11T10:12:01.893Z,-3.81
2022-12-11T10:14:45.674Z,-3.83
2022-12-11T10:17:25.331Z,-3.84
2022-12-11T10:19:54.829Z,-3.80
2022-12-11T10:22:26.099Z,-3.75
2022-12-11T10:25:10.524Z,-3.71
2022-12-11T10:27:40.683Z,-3.67
2022-12-11T10:30:16.951Z,-3.63
2022-12-11T10:32:54.662Z,-3.62
2022-12-11T10:35:37.027Z,-3.62
2022-12-11T10:38:29.399Z,-3.62
2022-12-11T10:41:09.137Z,-3.62
2022-12-11T10:43:43.261Z,-3.63
2022-12-11T10:46:19.127Z,-3.65
2022-12-11T10:48:55.757Z,-3.65
2022-12-11T10:51:39.588Z,-3.68
2022-12-11T10:54:18.198Z,-3.70
2022-12-11T10:56:48.166Z,-3.71
2022-12-11T10:59:29.478Z,-3.75
2022-12-11T11:01:57.843Z,-3.73
2022-12-11T11:04:33.244Z,-3.74
2022-12-11T11:07:03.287Z,-3.73
2022-12-11T11:09:34.773Z,-3.71
2022-12-11T11:12:07.845Z,-3.70
2022-12-11T11:14:35.862Z,-3.71
2022-12-11T11:17:03.390Z,-3.73
2022-12-11T11:19:33.896Z,-3.75
2022-12-11T11:22:14.046Z,-3.76
2022-12-11T11:24:46.089Z,-3.77
2022-12-11T11:27:42.451Z,-3.74
2022-12-11T11:30:27.951Z,-3.73
2022-12-11T11:33:00.684Z,-3.72
2022-12-11T11:35:30.401Z,-3.73
2022-12-11T11:38:21.413Z,-3.73
2022-12-11T11:41:15.381Z,-3.77
2022-12-11T11:43:50.656Z,-3.81
2022-12-11T11:46:40.537Z,-3.85
2022-12-11T11:49:28.065Z,-3.86
2022-12-11T11:52:21.662Z,-3.85
2022-12-11T11:54:56.905Z,-3.83
2022-12-11T11:57:35.545Z,-3.83
2022-12-11T12:00:33.393Z,-3.86
2022-12-11T12:03:09.491Z,-3.89
2022-12-11T12:05:54.022Z,-3.88
2022-12-11T12:08:37.553Z,-3.87
2022-12-11T12:11:09.476Z,-3.87
2022-12-11T12:14:28.836Z,-3.88
2022-12-11T12:17:12.615Z,-3.89
2022-12-11T12:19:54.537Z,-3.86
2022-12-11T12:22:54.129Z,-3.85
2022-12-11T12:25:53.733Z,-3.87
2022-12-11T12:28:40.032Z,-3.90
2022-12-11T12:31:33.663Z,-3.93
2022-12-11T12:34:22.814Z,-3.96
2022-12-11T12:37:07.600Z,-4.03
2022-12-11T12:39:54.353Z,-4.07
2022-12-11T12:42:45.423Z,-4.11
2022-12-11T12:45:16.009Z,-4.16
2022-12-11T12:47:51.978Z,-4.19
2022-12-11T12:50:24.931Z,-4.21
2022-12-11T12:52:54.133Z,-4.25
2022-12-11T12:55:31.622Z,-4.29
2022-12-11T12:58:05.180Z,-4.33
2022-12-11T13:00:41.563Z,-4.38
2022-12-11T13:03:30.260Z,-4.39
2022-12-11T13:06:07.926Z,-4.44
2022-12-11T13:08:43.574Z,-4.47
2022-12-11T13:11:13.647Z,-4.49
2022-12-11T13:13:44.573Z,-4.48
2022-12-11T13:16:15.113Z,-4.48
2022-12-11T13:18:49.007Z,-4.47
2022-12-11T13:21:32.672Z,-4.46
2022-12-11T13:24:24.161Z,-4.47
2022-12-11T13:26:51.749Z,-4.46
2022-12-11T13:29:36.701Z,-4.44
2022-12-11T13:32:10.416Z,-4.43
2022-12-11T13:34:42.159Z,-4.44
2022-12-11T13:37:26.034Z,-4.45
2022-12-11T13:39:54.341Z,-4.46
2022-12-11T13:42:29.514Z,-4.46
2022-12-11T13:44:57.548Z,-4.47
2022-12-11T13:47:26.388Z,-4.47
2022-12-11T13:49:56.281Z,-4.52
2022-12-11T13:52:27.553Z,-4.58
2022-12-11T13:54:58.987Z,-4.60
2022-12-11T13:57:28.605Z,-4.62
2022-12-11T13:59:58.412Z,-4.62
2022-12-11T14:02:34.550Z,-4.64
2022-12-11T14:05:06.731Z,-4.63
2022-12-11T14:07:38.279Z,-4.61
2022-12-11T14:10:14.068Z,-4.61
2022-12-11T14:13:00.857Z,-4.60
2022-12-11T14:15:31.703Z,-4.60
2022-12-11T14:18:00.686Z,-4.64
2022-12-11T14:20:31.197Z,-4.68
2022-12-11T14:23:19.970Z,-4.68
2022-12-11T14:25:58.572Z,-4.67
2022-12-11T14:28:28.418Z,-4.67
2022-12-11T14:31:00.677Z,-4.68
2022-12-11T14:33:39.013Z,-4.68
2022-12-11T14:36:08.167Z,-4.67
2022-12-11T14:38:43.119Z,-4.67
2022-12-11T14:41:18.648Z,-4.65
2022-12-11T14:43:51.437Z,-4.65
2022-12-11T14:46:42.823Z,-4.62
2022-12-11T14:49:26.330Z,-4.61
2022-12-11T14:51:57.552Z,-4.60
2022-12-11T14:54:43.147Z,-4.59
2022-12-11T14:57:20.039Z,-4.57
2022-12-11T14:59:51.283Z,-4.60
2022-12-11T15:02:32.122Z,-4.61
2022-12-11T15:05:10.997Z,-4.64
2022-12-11T15:07:39.826Z,-4.65
2022-12-11T15:10:20.907Z,-4.68
2022-12-11T15:12:48.992Z,-4.71
2022-12-11T15:15:18.317Z,-4.74
2022-12-11T15:17:52.670Z,-4.74
2022-12-11T15:20:25.108Z,-4.72
2022-12-11T15:22:53.798Z,-4.71
2022-12-11T15:25:24.696Z,-4.68
2022-12-11T15:27:55.079Z,-4.65
2022-12-11T15:30:29.081Z,-4.62
2022-12-11T15:33:21.930Z,-4.60
2022-12-11T15:36:27.730Z,-4.56
2022-12-11T15:38:55.334Z,-4.56
2022-12-11T15:41:24.758Z,-4.53
2022-12-11T15:43:58.993Z,-4.49
2022-12-11T15:46:27.257Z,-4.48
2022-12-11T15:48:56.850Z,-4.46
2022-12-11T15:51:25.254Z,-4.45
2022-12-11T15:53:52.961Z,-4.43
2022-12-11T15:56:20.711Z,-4.42
2022-12-11T15:58:49.315Z,-4.41
2022-12-11T16:01:17.601Z,-4.41
2022-12-11T16:03:45.701Z,-4.42
2022-12-11T16:06:13.980Z,-4.42
2022-12-11T16:08:41.494Z,-4.44
2022-12-11T16:11:13.386Z,-4.45
2022-12-11T16:13:40.964Z,-4.47
2022-12-11T16:16:08.558Z,-4.48
2022-12-11T16:18:36.135Z,-4.49
2022-12-11T16:21:06.429Z,-4.50
2022-12-11T16:23:34.109Z,-4.52
2022-12-11T16:26:06.888Z,-4.53
2022-12-11T16:28:34.697Z,-4.52
2022-12-11T16:31:02.431Z,-4.49
2022-12-11T16:33:30.119Z,-4.49
2022-12-11T16:35:57.715Z,-4.50
2022-12-11T16:38:25.245Z,-4.49
2022-12-11T16:41:00.931Z,-4.46
2022-12-11T16:43:28.435Z,-4.44
2022-12-11T16:45:56.396Z,-4.42
2022-12-11T16:48:24.332Z,-4.40
2022-12-11T16:50:55.261Z,-4.38
2022-12-11T16:53:23.218Z,-4.35
2022-12-11T16:55:51.427Z,-4.30
2022-12-11T16:58:20.127Z,-4.28
2022-12-11T17:00:48.560Z,-4.27
2022-12-11T17:03:16.315Z,-4.30
2022-12-11T17:05:43.941Z,-4.33
2022-12-11T17:08:13.394Z,-4.34
2022-12-11T17:10:42.278Z,-4.33
2022-12-11T17:13:09.802Z,-4.29
2022-12-11T17:15:41.777Z,-4.27
2022-12-11T17:18:10.481Z,-4.27
2022-12-11T17:20:43.260Z,-4.27
2022-12-11T17:23:12.295Z,-4.27
2022-12-11T17:25:44.952Z,-4.25
2022-12-11T17:28:13.371Z,-4.25
2022-12-11T17:30:43.514Z,-4.26
2022-12-11T17:33:12.169Z,-4.27
2022-12-11T17:35:39.750Z,-4.26
2022-12-11T17:38:07.654Z,-4.25
2022-12-11T17:40:35.370Z,-4.26
2022-12-11T17:43:06.297Z,-4.25
2022-12-11T17:45:33.869Z,-4.26
2022-12-11T17:48:01.485Z,-4.25
2022-12-11T17:50:29.041Z,-4.24
2022-12-11T17:52:57.559Z,-4.24
2022-12-11T17:55:25.158Z,-4.26
2022-12-11T17:57:52.910Z,-4.26
2022-12-11T18:00:20.435Z,-4.25
2022-12-11T18:02:47.938Z,-4.26
2022-12-11T18:05:16.114Z,-4.25
2022-12-11T18:07:43.757Z,-4.23
2022-12-11T18:10:11.429Z,-4.22
2022-12-11T18:12:39.280Z,-4.21
2022-12-11T18:15:07.575Z,-4.22
2022-12-11T18:17:35.356Z,-4.23
2022-12-11T18:20:03.680Z,-4.24
2022-12-11T18:22:31.271Z,-4.25
2022-12-11T18:24:58.823Z,-4.25
2022-12-11T18:27:26.599Z,-4.24
2022-12-11T18:29:55.499Z,-4.25
2022-12-11T18:32:24.300Z,-4.27
2022-12-11T18:34:52.352Z,-4.26
2022-12-11T18:37:24.728Z,-4.26
2022-12-11T18:39:55.322Z,-4.28
2022-12-11T18:42:38.215Z,-4.29
2022-12-11T18:45:06.984Z,-4.30
2022-12-11T18:47:34.594Z,-4.31
2022-12-11T18:50:07.461Z,-4.31
2022-12-11T18:52:35.827Z,-4.32
2022-12-11T18:55:04.488Z,-4.32
2022-12-11T18:57:32.363Z,-4.34
2022-12-11T19:00:07.378Z,-4.33
2022-12-11T19:02:35.531Z,-4.33
2022-12-11T19:05:03.640Z,-4.32
2022-12-11T19:07:31.518Z,-4.30
2022-12-11T19:09:59.126Z,-4.31
2022-12-11T19:12:26.777Z,-4.31
2022-12-11T19:14:54.506Z,-4.32
2022-12-11T19:17:22.052Z,-4.33
2022-12-11T19:19:50.245Z,-4.33
2022-12-11T19:22:17.760Z,-4.30
2022-12-11T19:24:45.359Z,-4.30
2022-12-11T19:27:13.879Z,-4.29
2022-12-11T19:29:41.694Z,-4.29
2022-12-11T19:32:09.658Z,-4.31
2022-12-11T19:34:38.390Z,-4.31
2022-12-11T19:37:05.904Z,-4.32
2022-12-11T19:39:33.609Z,-4.32
2022-12-11T19:42:01.333Z,-4.31
2022-12-11T19:44:28.864Z,-4.30
2022-12-11T19:46:56.818Z,-4.29
2022-12-11T19:49:24.478Z,-4.29
2022-12-11T19:51:52.002Z,-4.28
2022-12-11T19:54:19.748Z,-4.27
2022-12-11T19:56:47.600Z,-4.26
2022-12-11T19:59:16.721Z,-4.26
2022-12-11T20:01:47.837Z,-4.26
2022-12-11T20:04:17.626Z,-4.26
2022-12-11T20:06:46.711Z,-4.26
2022-12-11T20:09:14.772Z,-4.26
2022-12-11T20:11:44.382Z,-4.26
2022-12-11T20:14:22.806Z,-4.24
2022-12-11T20:17:10.976Z,-4.23
2022-12-11T20:19:40.081Z,-4.22
2022-12-11T20:22:09.167Z,-4.22
2022-12-11T20:24:37.507Z,-4.22
2022-12-11T20:27:05.252Z,-4.18
2022-12-11T20:29:32.842Z,-4.15
2022-12-11T20:32:00.688Z,-4.12
2022-12-11T20:34:28.307Z,-4.11
2022-12-11T20:36:56.360Z,-4.09
2022-12-11T20:39:25.286Z,-4.05
2022-12-11T20:41:52.816Z,-4.00
2022-12-11T20:44:20.656Z,-3.97
2022-12-11T20:46:48.190Z,-3.94
2022-12-11T20:49:16.464Z,-3.90
2022-12-11T20:51:44.012Z,-3.88
2022-12-11T20:54:11.904Z,-3.86
2022-12-11T20:56:39.561Z,-3.83
2022-12-11T20:59:07.112Z,-3.78
2022-12-11T21:01:34.914Z,-3.73
2022-12-11T21:04:02.972Z,-3.70
2022-12-11T21:06:33.309Z,-3.67
2022-12-11T21:09:05.026Z,-3.65
2022-12-11T21:11:32.649Z,-3.63
2022-12-11T21:14:00.270Z,-3.61
2022-12-11T21:16:28.774Z,-3.58
2022-12-11T21:18:57.452Z,-3.57
2022-12-11T21:21:26.525Z,-3.57
2022-12-11T21:23:54.610Z,-3.54
2022-12-11T21:26:22.185Z,-3.55
2022-12-11T21:28:50.609Z,-3.53
2022-12-11T21:31:19.650Z,-3.52
2022-12-11T21:33:47.913Z,-3.53
2022-12-11T21:36:16.584Z,-3.53
2022-12-11T21:38:45.087Z,-3.52
2022-12-11T21:41:15.821Z,-3.52
2022-12-11T21:44:14.537Z,-3.50
2022-12-11T21:46:33.181Z,-3.48
2022-12-11T21:49:01.049Z,-3.47
2022-12-11T21:51:37.721Z,-3.46
2022-12-11T21:54:07.496Z,-3.46
2022-12-11T21:56:35.029Z,-3.47
2022-12-11T21:59:02.615Z,-3.47
2022-12-11T22:01:34.907Z,-3.46
2022-12-11T22:04:04.837Z,-3.43
2022-12-11T22:06:32.979Z,-3.40
2022-12-11T22:09:00.736Z,-3.38
2022-12-11T22:11:31.156Z,-3.36
2022-12-11T22:13:59.266Z,-3.36
2022-12-11T22:16:27.624Z,-3.33
2022-12-11T22:18:55.162Z,-3.33
2022-12-11T22:21:22.983Z,-3.31
2022-12-11T22:23:50.724Z,-3.27
2022-12-11T22:26:21.357Z,-3.22
2022-12-11T22:28:50.303Z,-3.18
2022-12-11T22:31:21.228Z,-3.15
2022-12-11T22:33:50.667Z,-3.13
2022-12-11T22:36:18.882Z,-3.14
2022-12-11T22:38:47.229Z,-3.14
2022-12-11T22:41:22.647Z,-3.12
2022-12-11T22:43:50.871Z,-3.09
2022-12-11T22:46:20.563Z,-3.07
2022-12-11T22:48:48.102Z,-3.05
2022-12-11T22:51:16.145Z,-3.04
2022-12-11T22:53:43.716Z,-3.01
2022-12-11T22:56:12.775Z,-3.00
2022-12-11T22:58:40.868Z,-3.00
2022-12-11T23:01:14.630Z,-3.01
2022-12-11T23:03:42.371Z,-3.01
2022-12-11T23:06:12.548Z,-2.99
2022-12-11T23:08:41.538Z,-2.97
2022-12-11T23:11:15.329Z,-2.97
2022-12-11T23:13:43.554Z,-2.95
2022-12-11T23:16:12.192Z,-2.94
2022-12-11T23:18:39.986Z,-2.91
2022-12-11T23:21:08.440Z,-2.90
2022-12-11T23:23:36.339Z,-2.86
2022-12-11T23:26:05.970Z,-2.83
2022-12-11T23:28:34.011Z,-2.78
2022-12-11T23:31:02.011Z,-2.75
2022-12-11T23:33:29.588Z,-2.74
2022-12-11T23:35:58.108Z,-2.73
2022-12-11T23:38:26.345Z,-2.71
2022-12-11T23:40:54.651Z,-2.69
2022-12-11T23:43:22.428Z,-2.70
2022-12-11T23:45:50.075Z,-2.71
2022-12-11T23:48:18.393Z,-2.73
2022-12-11T23:50:46.590Z,-2.72
2022-12-11T23:53:14.141Z,-2.70
2022-12-11T23:55:44.013Z,-2.70
2022-12-11T23:58:11.815Z,-2.70
